createdAt,value
2018-06-11T00:02:02.939Z,21.80
2018-06-11T00:04:32.084Z,26.12
2018-06-11T00:07:01.526Z,24.57
2018-06-11T00:09:31.044Z,22.10
2018-06-11T00:12:00.453Z,26.48
2018-06-11T00:14:29.933Z,24.10
2018-06-11T00:16:59.503Z,23.62
2018-06-11T00:19:29.107Z,23.77
2018-06-11T00:21:58.551Z,26.02
2018-06-11T00:24:27.964Z,22.10
2018-06-11T00:26:57.619Z,29.57
2018-06-11T00:29:27.164Z,25.23
2018-06-11T00:31:56.612Z,26.90
2018-06-11T00:34:26.046Z,26.68
2018-06-11T00:36:56.213Z,26.37
2018-06-11T00:39:25.776Z,24.45
2018-06-11T00:41:55.219Z,24.52
2018-06-11T00:44:24.684Z,24.25
2018-06-11T00:46:54.236Z,26.02
2018-06-11T00:49:23.682Z,27.15
2018-06-11T00:51:53.103Z,28.92
2018-06-11T00:54:22.567Z,26.60
2018-06-11T00:56:52.097Z,25.02
2018-06-11T00:59:21.543Z,28.38
2018-06-11T01:01:50.952Z,30.25
2018-06-11T01:04:20.497Z,27.87
2018-06-11T01:06:50.073Z,30.95
2018-06-11T01:09:19.507Z,33.08
2018-06-11T01:11:48.936Z,25.92
2018-06-11T01:14:19.114Z,26.95
2018-06-11T01:16:48.668Z,30.72
2018-06-11T01:19:18.109Z,30.88
2018-06-11T01:21:47.509Z,28.75
2018-06-11T01:24:17.047Z,31.30
2018-06-11T01:26:46.480Z,29.60
2018-06-11T01:29:15.903Z,32.40
2018-06-11T01:31:45.385Z,33.63
2018-06-11T01:34:14.891Z,29.35
2018-06-11T01:36:44.311Z,32.60
2018-06-11T01:39:13.723Z,31.62
2018-06-11T01:41:43.171Z,28.20
2018-06-11T01:44:12.640Z,31.95
2018-06-11T01:46:42.059Z,30.60
2018-06-11T01:49:11.485Z,31.70
2018-06-11T01:51:40.961Z,30.27
2018-06-11T01:54:10.379Z,33.18
2018-06-11T01:56:39.849Z,29.95
2018-06-11T01:59:09.395Z,26.15
2018-06-11T02:01:38.803Z,32.30
2018-06-11T02:04:08.213Z,30.15
2018-06-11T02:06:37.672Z,36.45
2018-06-11T02:09:08.610Z,31.90
2018-06-11T02:11:38.115Z,35.60
2018-06-11T02:14:07.547Z,29.70
2018-06-11T02:16:36.945Z,28.73
2018-06-11T02:19:06.467Z,27.80
2018-06-11T02:21:35.914Z,31.50
2018-06-11T02:24:05.337Z,30.92
2018-06-11T02:26:34.772Z,34.70
2018-06-11T02:29:04.258Z,29.40
2018-06-11T02:31:33.690Z,36.83
2018-06-11T02:34:03.187Z,35.15
2018-06-11T02:36:32.640Z,31.85
2018-06-11T02:39:02.099Z,34.73
2018-06-11T02:41:31.483Z,33.85
2018-06-11T02:44:00.892Z,33.83
2018-06-11T02:46:30.405Z,32.67
2018-06-11T02:48:59.883Z,33.55
2018-06-11T02:51:29.394Z,34.75
2018-06-11T02:53:58.835Z,32.23
2018-06-11T02:56:28.317Z,38.50
2018-06-11T02:58:57.735Z,31.35
2018-06-11T03:01:27.284Z,30.77
2018-06-11T03:03:56.746Z,31.80
2018-06-11T03:06:26.153Z,33.33
2018-06-11T03:08:55.536Z,30.32
2018-06-11T03:11:24.974Z,27.93
2018-06-11T03:13:54.487Z,29.60
2018-06-11T03:16:23.953Z,33.13
2018-06-11T03:18:53.358Z,38.30
2018-06-11T03:21:22.850Z,30.12
2018-06-11T03:23:52.337Z,30.50
2018-06-11T03:26:21.764Z,32.17
2018-06-11T03:28:51.198Z,27.20
2018-06-11T03:31:20.655Z,35.25
2018-06-11T03:33:50.149Z,31.45
2018-06-11T03:36:19.563Z,32.03
2018-06-11T03:38:49.015Z,32.75
2018-06-11T03:41:18.417Z,29.02
2018-06-11T03:43:47.859Z,30.08
2018-06-11T03:46:17.427Z,31.68
2018-06-11T03:48:47.286Z,31.60
2018-06-11T03:51:16.784Z,33.80
2018-06-11T03:53:46.224Z,30.62
2018-06-11T03:56:15.695Z,34.88
2018-06-11T03:58:45.144Z,29.63
2018-06-11T04:01:14.603Z,30.57
2018-06-11T04:03:44.027Z,32.40
2018-06-11T04:06:13.457Z,31.90
2018-06-11T04:08:42.969Z,31.02
2018-06-11T04:11:12.446Z,29.95
2018-06-11T04:13:41.801Z,29.25
2018-06-11T04:16:11.297Z,26.57
2018-06-11T04:18:40.744Z,23.52
2018-06-11T04:21:10.172Z,27.48
2018-06-11T04:23:39.607Z,26.23
2018-06-11T04:26:09.090Z,26.57
2018-06-11T04:28:38.559Z,25.48
2018-06-11T04:31:07.964Z,26.57
2018-06-11T04:33:37.374Z,23.98
2018-06-11T04:36:06.938Z,27.82
2018-06-11T04:38:36.373Z,29.75
2018-06-11T04:41:05.892Z,24.55
2018-06-11T04:43:35.537Z,23.57
2018-06-11T04:46:05.225Z,25.35
2018-06-11T04:48:34.692Z,24.75
2018-06-11T04:51:03.830Z,29.18
2018-06-11T04:53:33.344Z,28.77
2018-06-11T04:56:02.847Z,25.43
2018-06-11T04:58:32.263Z,24.85
2018-06-11T05:01:01.730Z,27.00
2018-06-11T05:03:31.294Z,25.45
2018-06-11T05:06:00.785Z,26.77
2018-06-11T05:08:30.204Z,24.12
2018-06-11T05:10:59.762Z,31.90
2018-06-11T05:13:29.212Z,29.80
2018-06-11T05:16:01.115Z,24.23
2018-06-11T05:18:30.600Z,25.10
2018-06-11T05:21:00.080Z,25.57
2018-06-11T05:23:29.606Z,21.50
2018-06-11T05:25:59.147Z,28.90
2018-06-11T05:28:28.630Z,26.07
2018-06-11T05:30:58.036Z,28.42
2018-06-11T05:33:27.619Z,26.52
2018-06-11T05:35:57.184Z,26.68
2018-06-11T05:38:26.577Z,25.57
2018-06-11T05:40:56.111Z,26.12
2018-06-11T05:43:25.606Z,28.00
2018-06-11T05:45:55.019Z,26.68
2018-06-11T05:48:24.433Z,24.50
2018-06-11T05:50:54.200Z,25.40
2018-06-11T05:53:23.678Z,26.42
2018-06-11T05:55:53.103Z,26.85
2018-06-11T05:58:22.503Z,22.48
2018-06-11T06:00:51.973Z,26.30
2018-06-11T06:03:21.536Z,26.73
2018-06-11T06:05:50.954Z,29.07
2018-06-11T06:08:20.487Z,24.82
2018-06-11T06:10:50.090Z,33.45
2018-06-11T06:13:19.517Z,25.70
2018-06-11T06:15:48.971Z,32.67
2018-06-11T06:18:18.595Z,24.77
2018-06-11T06:20:48.040Z,27.82
2018-06-11T06:23:17.524Z,28.35
2018-06-11T06:25:47.051Z,29.85
2018-06-11T06:28:16.493Z,29.92
2018-06-11T06:30:45.962Z,23.90
2018-06-11T06:33:15.122Z,27.40
2018-06-11T06:35:44.547Z,23.22
2018-06-11T06:38:14.052Z,21.75
2018-06-11T06:40:43.465Z,26.75
2018-06-11T06:43:12.886Z,23.73
2018-06-11T06:45:42.403Z,22.05
2018-06-11T06:48:11.959Z,20.23
2018-06-11T06:50:41.423Z,23.02
2018-06-11T06:53:10.878Z,25.88
2018-06-11T06:55:40.445Z,26.17
2018-06-11T06:58:09.930Z,24.82
2018-06-11T07:00:39.823Z,22.82
2018-06-11T07:03:09.333Z,26.65
2018-06-11T07:05:38.915Z,22.52
2018-06-11T07:08:08.540Z,25.88
2018-06-11T07:10:37.989Z,23.87
2018-06-11T07:13:07.586Z,25.72
2018-06-11T07:15:37.024Z,25.30
2018-06-11T07:18:06.459Z,26.68
2018-06-11T07:20:35.889Z,40.03
2018-06-11T07:23:05.423Z,29.32
2018-06-11T07:25:34.932Z,28.17
2018-06-11T07:28:04.194Z,28.45
2018-06-11T07:30:33.637Z,26.37
2018-06-11T07:33:03.268Z,27.22
2018-06-11T07:35:32.687Z,27.50
2018-06-11T07:38:02.114Z,28.92
2018-06-11T07:40:31.644Z,32.42
2018-06-11T07:43:01.666Z,31.35
2018-06-11T07:45:31.169Z,32.42
2018-06-11T07:48:00.608Z,32.13
2018-06-11T07:50:30.167Z,35.95
2018-06-11T07:52:59.617Z,31.50
2018-06-11T07:55:29.051Z,32.88
2018-06-11T07:57:58.492Z,36.40
2018-06-11T08:00:28.026Z,31.65
2018-06-11T08:02:57.488Z,32.85
2018-06-11T08:05:26.924Z,33.92
2018-06-11T08:07:56.374Z,31.52
2018-06-11T08:10:25.969Z,29.12
2018-06-11T08:12:55.373Z,36.05
2018-06-11T08:15:24.775Z,30.68
2018-06-11T08:17:54.264Z,32.65
2018-06-11T08:20:23.869Z,29.23
2018-06-11T08:22:53.304Z,24.87
2018-06-11T08:25:22.780Z,26.45
2018-06-11T08:27:52.319Z,25.60
2018-06-11T08:30:21.781Z,26.77
2018-06-11T08:32:51.231Z,23.80
2018-06-11T08:35:20.711Z,22.48
2018-06-11T08:37:50.314Z,23.25
2018-06-11T08:40:19.737Z,22.13
2018-06-11T08:42:49.155Z,20.80
2018-06-11T08:45:18.672Z,27.37
2018-06-11T08:47:48.228Z,23.95
2018-06-11T08:50:17.666Z,24.43
2018-06-11T08:52:47.172Z,22.82
2018-06-11T08:55:16.687Z,22.65
2018-06-11T08:57:46.244Z,22.67
2018-06-11T09:00:15.704Z,25.35
2018-06-11T09:02:45.307Z,20.82
2018-06-11T09:05:14.897Z,17.82
2018-06-11T09:07:44.371Z,21.40
2018-06-11T09:10:13.800Z,22.25
2018-06-11T09:12:43.587Z,22.62
2018-06-11T09:15:13.120Z,20.57
2018-06-11T09:17:42.575Z,18.62
2018-06-11T09:20:12.033Z,22.13
2018-06-11T09:22:41.593Z,17.73
2018-06-11T09:25:11.200Z,18.57
2018-06-11T09:27:40.662Z,19.52
2018-06-11T09:30:10.120Z,16.93
2018-06-11T09:32:39.685Z,23.57
2018-06-11T09:35:09.167Z,17.45
2018-06-11T09:37:38.605Z,17.70
2018-06-11T09:40:08.069Z,18.07
2018-06-11T09:42:37.558Z,25.97
2018-06-11T09:45:07.031Z,21.75
2018-06-11T09:47:36.462Z,18.50
2018-06-11T09:50:06.023Z,18.42
2018-06-11T09:52:35.536Z,16.48
2018-06-11T09:55:05.012Z,18.65
2018-06-11T09:57:34.498Z,18.65
2018-06-11T10:00:03.777Z,16.75
2018-06-11T10:02:33.221Z,18.87
2018-06-11T10:05:02.685Z,25.02
2018-06-11T10:07:32.314Z,15.70
2018-06-11T10:10:01.941Z,16.62
2018-06-11T10:12:31.435Z,17.52
2018-06-11T10:15:00.883Z,18.32
2018-06-11T10:17:30.455Z,18.73
2018-06-11T10:19:59.993Z,16.27
2018-06-11T10:22:29.434Z,13.98
2018-06-11T10:24:58.998Z,16.25
2018-06-11T10:27:28.598Z,18.40
2018-06-11T10:29:58.077Z,16.90
2018-06-11T10:32:27.494Z,19.60
2018-06-11T10:34:56.992Z,14.25
2018-06-11T10:37:26.465Z,15.08
2018-06-11T10:39:55.930Z,15.28
2018-06-11T10:42:25.428Z,14.47
2018-06-11T10:44:55.077Z,17.00
2018-06-11T10:47:24.608Z,20.40
2018-06-11T10:49:54.036Z,13.85
2018-06-11T10:52:23.539Z,16.73
2018-06-11T10:54:53.128Z,17.10
2018-06-11T10:57:22.918Z,15.68
2018-06-11T10:59:52.353Z,19.25
2018-06-11T11:02:21.986Z,13.80
2018-06-11T11:04:52.165Z,16.20
2018-06-11T11:07:21.680Z,17.23
2018-06-11T11:09:51.080Z,14.35
2018-06-11T11:12:20.569Z,15.98
2018-06-11T11:14:50.084Z,14.05
2018-06-11T11:17:19.496Z,13.85
2018-06-11T11:19:48.974Z,14.10
2018-06-11T11:22:18.497Z,13.65
2018-06-11T11:24:47.995Z,10.85
2018-06-11T11:27:17.457Z,13.68
2018-06-11T11:29:46.942Z,12.25
2018-06-11T11:32:16.412Z,11.63
2018-06-11T11:34:45.940Z,14.58
2018-06-11T11:37:15.333Z,11.43
2018-06-11T11:39:44.803Z,10.18
2018-06-11T11:42:14.348Z,12.40
2018-06-11T11:44:43.755Z,12.55
2018-06-11T11:47:13.206Z,11.73
2018-06-11T11:49:42.679Z,11.88
2018-06-11T11:52:12.196Z,21.20
2018-06-11T11:54:41.646Z,11.83
2018-06-11T11:57:11.109Z,20.97
2018-06-11T11:59:40.645Z,11.55
2018-06-11T12:02:10.233Z,12.15
2018-06-11T12:04:39.648Z,12.95
2018-06-11T12:07:09.078Z,12.35
2018-06-11T12:09:38.333Z,10.28
2018-06-11T12:12:07.828Z,15.25
2018-06-11T12:14:37.314Z,12.33
2018-06-11T12:17:07.011Z,11.95
2018-06-11T12:19:36.550Z,10.90
2018-06-11T12:22:05.963Z,12.40
2018-06-11T12:24:35.474Z,11.65
2018-06-11T12:27:05.534Z,10.03
2018-06-11T12:29:34.934Z,10.05
2018-06-11T12:32:04.459Z,10.38
2018-06-11T12:34:33.922Z,12.85
2018-06-11T12:37:03.503Z,8.13
2018-06-11T12:39:33.025Z,10.30
2018-06-11T12:42:02.444Z,8.20
2018-06-11T12:44:31.974Z,9.43
2018-06-11T12:47:03.177Z,8.85
2018-06-11T12:49:32.657Z,7.67
2018-06-11T12:52:02.096Z,8.83
2018-06-11T12:54:31.546Z,9.45
2018-06-11T12:57:01.324Z,8.20
2018-06-11T12:59:30.733Z,6.85
2018-06-11T13:02:00.164Z,6.28
2018-06-11T13:04:29.650Z,7.78
2018-06-11T13:07:00.183Z,6.22
2018-06-11T13:09:29.666Z,6.15
2018-06-11T13:11:59.047Z,9.13
2018-06-11T13:14:28.537Z,6.92
2018-06-11T13:16:58.141Z,6.90
2018-06-11T13:19:27.568Z,18.37
2018-06-11T13:21:57.022Z,9.00
2018-06-11T13:24:26.472Z,7.95
2018-06-11T13:26:56.057Z,7.37
2018-06-11T13:29:25.471Z,10.43
2018-06-11T13:31:55.006Z,8.30
2018-06-11T13:34:24.497Z,9.90
2018-06-11T13:36:53.992Z,7.53
2018-06-11T13:39:23.412Z,7.87
2018-06-11T13:41:52.883Z,6.45
2018-06-11T13:44:22.426Z,6.85
2018-06-11T13:46:51.977Z,6.25
2018-06-11T13:49:22.247Z,7.25
2018-06-11T13:51:51.721Z,7.17
2018-06-11T13:54:21.206Z,6.37
2018-06-11T13:56:50.731Z,8.08
2018-06-11T13:59:20.221Z,7.03
2018-06-11T14:01:49.871Z,9.80
2018-06-11T14:04:19.470Z,5.40
2018-06-11T14:06:49.108Z,5.37
2018-06-11T14:12:02.611Z,5.90
2018-06-11T14:14:32.216Z,6.28
2018-06-11T14:17:01.715Z,6.67
2018-06-11T14:19:31.291Z,8.15
2018-06-11T14:22:00.822Z,7.83
2018-06-11T14:24:30.305Z,6.85
2018-06-11T14:26:59.871Z,10.60
2018-06-11T14:29:29.283Z,6.83
2018-06-11T14:31:58.909Z,5.83
2018-06-11T14:34:28.435Z,4.42
2018-06-11T14:36:57.872Z,7.08
2018-06-11T14:39:27.400Z,5.15
2018-06-11T14:41:56.900Z,5.60
2018-06-11T14:44:26.436Z,4.47
2018-06-11T14:46:55.978Z,4.95
2018-06-11T14:49:25.502Z,4.85
2018-06-11T14:51:54.951Z,6.62
2018-06-11T14:54:24.429Z,4.97
2018-06-11T14:56:53.860Z,5.80
2018-06-11T14:59:23.293Z,4.87
2018-06-11T15:01:52.743Z,4.37
2018-06-11T15:04:22.207Z,5.20
2018-06-11T15:06:51.691Z,4.83
2018-06-11T15:09:21.311Z,5.65
2018-06-11T15:11:50.946Z,5.15
2018-06-11T15:14:20.398Z,5.45
2018-06-11T15:16:49.814Z,6.62
2018-06-11T15:19:19.248Z,6.37
2018-06-11T15:21:49.076Z,6.22
2018-06-11T15:24:18.483Z,5.22
2018-06-11T15:26:48.008Z,6.05
2018-06-11T15:29:17.482Z,6.00
2018-06-11T15:31:46.921Z,6.58
2018-06-11T15:34:16.363Z,7.87
2018-06-11T15:36:45.866Z,6.35
2018-06-11T15:39:15.335Z,10.48
2018-06-11T15:41:44.850Z,7.75
2018-06-11T15:44:14.453Z,9.58
2018-06-11T15:46:43.984Z,6.03
2018-06-11T15:49:13.576Z,12.43
2018-06-11T15:51:43.078Z,7.45
2018-06-11T15:54:12.533Z,5.92
2018-06-11T15:56:42.057Z,7.60
2018-06-11T15:59:11.529Z,8.35
2018-06-11T16:01:40.983Z,6.05
2018-06-11T16:04:10.471Z,9.83
2018-06-11T16:06:39.964Z,7.12
2018-06-11T16:09:09.560Z,6.37
2018-06-11T16:11:39.408Z,7.62
2018-06-11T16:14:09.461Z,6.67
2018-06-11T16:16:39.018Z,9.40
2018-06-11T16:19:08.523Z,7.17
2018-06-11T16:21:37.988Z,8.53
2018-06-11T16:24:07.551Z,6.28
2018-06-11T16:26:37.176Z,6.45
2018-06-11T16:29:06.947Z,5.67
2018-06-11T16:31:36.354Z,7.22
2018-06-11T16:34:05.821Z,7.40
2018-06-11T16:36:35.332Z,8.45
2018-06-11T16:39:07.632Z,8.10
2018-06-11T16:41:37.066Z,8.68
2018-06-11T16:44:06.551Z,8.78
2018-06-11T16:46:36.101Z,9.13
2018-06-11T16:49:05.809Z,7.55
2018-06-11T16:51:35.336Z,9.10
2018-06-11T16:54:04.768Z,9.60
2018-06-11T16:56:35.320Z,9.63
2018-06-11T16:59:04.844Z,14.55
2018-06-11T17:01:34.275Z,48.17
2018-06-11T17:04:03.706Z,47.03
2018-06-11T17:06:33.254Z,11.15
2018-06-11T17:09:02.807Z,8.38
2018-06-11T17:11:32.639Z,8.60
2018-06-11T17:14:02.062Z,8.08
2018-06-11T17:16:31.576Z,7.72
2018-06-11T17:19:01.311Z,7.62
2018-06-11T17:21:30.714Z,7.25
2018-06-11T17:24:00.214Z,10.38
2018-06-11T17:26:29.758Z,8.90
2018-06-11T17:28:59.246Z,10.65
2018-06-11T17:31:28.643Z,13.20
2018-06-11T17:33:58.112Z,13.40
2018-06-11T17:36:27.710Z,8.40
2018-06-11T17:38:57.194Z,17.12
2018-06-11T17:41:26.631Z,7.92
2018-06-11T17:43:56.078Z,7.90
2018-06-11T17:46:25.539Z,8.20
2018-06-11T17:48:54.690Z,8.50
2018-06-11T17:51:24.192Z,9.58
2018-06-11T17:53:53.645Z,8.63
2018-06-11T17:56:23.185Z,8.95
2018-06-11T17:58:52.640Z,7.87
2018-06-11T18:01:22.211Z,8.55
2018-06-11T18:03:51.795Z,9.10
2018-06-11T18:06:21.235Z,7.35
2018-06-11T18:08:50.677Z,7.60
2018-06-11T18:11:20.171Z,9.75
2018-06-11T18:13:49.623Z,7.60
2018-06-11T18:16:19.088Z,10.05
2018-06-11T18:18:48.579Z,10.05
2018-06-11T18:21:17.993Z,9.45
2018-06-11T18:23:47.432Z,10.35
2018-06-11T18:26:16.914Z,8.83
2018-06-11T18:28:46.414Z,7.33
2018-06-11T18:31:15.935Z,8.48
2018-06-11T18:33:45.379Z,9.18
2018-06-11T18:36:14.915Z,7.17
2018-06-11T18:38:44.508Z,12.78
2018-06-11T18:41:14.018Z,9.83
2018-06-11T18:43:43.457Z,10.30
2018-06-11T18:46:12.998Z,7.10
2018-06-11T18:48:42.520Z,7.72
2018-06-11T18:51:11.954Z,10.28
2018-06-11T18:53:41.400Z,8.38
2018-06-11T18:56:11.052Z,9.53
2018-06-11T18:58:40.593Z,8.38
2018-06-11T19:01:09.771Z,10.00
2018-06-11T19:03:40.068Z,8.55
2018-06-11T19:06:09.728Z,8.38
2018-06-11T19:08:39.327Z,8.05
2018-06-11T19:11:08.897Z,6.37
2018-06-11T19:13:38.349Z,9.45
2018-06-11T19:16:07.895Z,9.40
2018-06-11T19:18:37.355Z,15.80
2018-06-11T19:21:06.665Z,7.25
2018-06-11T19:23:36.230Z,8.70
2018-06-11T19:26:05.909Z,11.12
2018-06-11T19:28:35.445Z,8.88
2018-06-11T19:31:05.031Z,9.38
2018-06-11T19:33:34.550Z,7.22
2018-06-11T19:36:04.155Z,6.80
2018-06-11T19:38:33.624Z,8.70
2018-06-11T19:41:03.579Z,8.70
2018-06-11T19:43:33.289Z,8.03
2018-06-11T19:46:02.719Z,7.25
2018-06-11T19:48:33.353Z,6.90
2018-06-11T19:51:02.927Z,7.30
2018-06-11T19:53:32.915Z,6.20
2018-06-11T19:56:02.431Z,6.62
2018-06-11T19:58:31.946Z,7.40
2018-06-11T20:01:01.463Z,6.67
2018-06-11T20:03:31.062Z,9.50
2018-06-11T20:06:00.701Z,7.72
2018-06-11T20:08:30.620Z,10.20
2018-06-11T20:11:00.679Z,6.55
2018-06-11T20:13:30.246Z,10.13
2018-06-11T20:15:59.906Z,6.92
2018-06-11T20:18:29.595Z,9.78
2018-06-11T20:20:59.734Z,8.50
2018-06-11T20:23:32.324Z,7.15
2018-06-11T20:26:01.841Z,8.23
2018-06-11T20:31:08.994Z,7.40
2018-06-11T20:33:38.648Z,7.83
2018-06-11T20:36:08.234Z,7.17
2018-06-11T20:38:37.646Z,8.18
2018-06-11T20:41:07.269Z,7.83
2018-06-11T20:43:36.756Z,7.05
2018-06-11T20:46:06.200Z,7.15
2018-06-11T20:48:35.681Z,7.22
2018-06-11T20:51:06.072Z,6.65
2018-06-11T20:53:35.753Z,11.53
2018-06-11T20:56:05.239Z,8.30
2018-06-11T20:58:34.675Z,7.50
2018-06-11T21:01:04.313Z,9.23
2018-06-11T21:03:33.949Z,6.92
2018-06-11T21:06:03.470Z,7.53
2018-06-11T21:08:32.997Z,8.03
2018-06-11T21:11:02.543Z,7.03
2018-06-11T21:13:32.590Z,7.85
2018-06-11T21:16:02.101Z,7.75
2018-06-11T21:18:31.528Z,8.20
2018-06-11T21:21:01.115Z,8.50
2018-06-11T21:23:30.549Z,7.42
2018-06-11T21:25:59.988Z,11.08
2018-06-11T21:28:29.451Z,7.85
2018-06-11T21:30:59.048Z,14.60
2018-06-11T21:33:28.509Z,9.85
2018-06-11T21:35:58.045Z,11.88
2018-06-11T21:38:27.524Z,8.70
2018-06-11T21:40:57.057Z,8.58
2018-06-11T21:43:26.602Z,9.78
2018-06-11T21:45:56.180Z,9.80
2018-06-11T21:48:25.826Z,9.35
2018-06-11T21:50:55.344Z,10.05
2018-06-11T21:53:24.800Z,8.68
2018-06-11T21:55:54.363Z,10.08
2018-06-11T21:58:23.822Z,11.35
2018-06-11T22:00:53.372Z,10.65
2018-06-11T22:03:22.951Z,9.53
2018-06-11T22:05:52.412Z,13.00
2018-06-11T22:08:22.023Z,10.48
2018-06-11T22:10:51.598Z,11.88
2018-06-11T22:13:20.987Z,11.68
2018-06-11T22:15:50.559Z,12.45
2018-06-11T22:18:20.123Z,11.05
2018-06-11T22:20:49.530Z,10.60
2018-06-11T22:23:18.953Z,11.73
2018-06-11T22:25:48.445Z,11.73
2018-06-11T22:28:18.037Z,12.00
2018-06-11T22:30:47.493Z,15.90
2018-06-11T22:33:17.129Z,11.20
2018-06-11T22:35:46.579Z,12.28
2018-06-11T22:38:15.999Z,12.53
2018-06-11T22:40:45.423Z,13.80
2018-06-11T22:43:15.023Z,12.58
2018-06-11T22:45:44.569Z,14.43
2018-06-11T22:48:14.090Z,11.90
2018-06-11T22:50:43.536Z,13.72
2018-06-11T22:53:13.183Z,11.25
2018-06-11T22:55:42.658Z,14.35
2018-06-11T22:58:12.234Z,11.93
2018-06-11T23:00:41.751Z,13.72
2018-06-11T23:03:11.298Z,13.95
2018-06-11T23:05:40.709Z,13.35
2018-06-11T23:08:10.259Z,12.65
2018-06-11T23:10:39.786Z,14.00
2018-06-11T23:13:09.271Z,13.13
2018-06-11T23:15:38.720Z,14.15
2018-06-11T23:18:08.203Z,12.03
2018-06-11T23:20:37.692Z,13.68
2018-06-11T23:23:07.255Z,12.30
2018-06-11T23:25:36.670Z,14.65
2018-06-11T23:28:07.237Z,12.63
2018-06-11T23:30:36.802Z,13.88
2018-06-11T23:33:06.478Z,13.48
2018-06-11T23:35:35.969Z,12.63
2018-06-11T23:38:05.414Z,14.18
2018-06-11T23:40:34.959Z,11.35
2018-06-11T23:51:56.594Z,14.70
2018-06-11T23:54:26.165Z,13.62
2018-06-11T23:56:55.683Z,13.58
2018-06-11T23:59:25.162Z,14.70
